Time;durP1;ratioP1;P1;durP2;ratioP2;P2;SDS_P1;SDS_P2;PMS_P1;PMS_P2;Temp;Humidity;BMP_temperature;BMP_pressure;BME280_temperature;BME280_humidity;BME280_pressure;Samples;Min_cycle;Max_cycle;Signal;HPM_P1;HPM_P2
2023/05/01 00:00:51;;;;;;;10.95;4.45;;;7.60;87.80;;;;;;5083861;28;20122;-69
2023/05/01 00:03:18;;;;;;;6.88;4.53;;;7.50;87.90;;;;;;5079523;28;20112;-70
2023/05/01 00:05:44;;;;;;;7.38;4.35;;;7.50;88.40;;;;;;5077021;28;20055;-69
2023/05/01 00:08:10;;;;;;;13.40;4.82;;;7.40;88.50;;;;;;5079489;28;20032;-70
2023/05/01 00:10:36;;;;;;;7.68;3.97;;;7.40;89.00;;;;;;5070490;28;20032;-70
2023/05/01 00:13:02;;;;;;;7.97;3.95;;;7.40;89.20;;;;;;5081999;28;20129;-69
2023/05/01 00:15:28;;;;;;;11.00;4.72;;;7.30;89.40;;;;;;5085095;28;20074;-69
2023/05/01 00:17:53;;;;;;;6.50;4.00;;;7.40;89.60;;;;;;5078987;28;20186;-69
2023/05/01 00:20:19;;;;;;;6.72;3.78;;;7.30;89.90;;;;;;5084027;28;20569;-69
2023/05/01 00:22:44;;;;;;;7.47;3.72;;;7.30;89.90;;;;;;5063550;28;20036;-69
2023/05/01 00:25:10;;;;;;;9.45;4.88;;;7.20;89.70;;;;;;5082002;28;20069;-69
2023/05/01 00:27:36;;;;;;;6.63;4.20;;;7.20;90.10;;;;;;5077251;28;20031;-70
2023/05/01 00:30:02;;;;;;;9.73;4.40;;;7.10;89.90;;;;;;5067709;28;20043;-69
2023/05/01 00:32:28;;;;;;;9.70;4.35;;;7.10;90.10;;;;;;5065392;28;20028;-69
2023/05/01 00:34:55;;;;;;;9.35;4.50;;;7.10;90.10;;;;;;5084263;28;20033;-69
2023/05/01 00:37:21;;;;;;;7.70;4.28;;;7.00;90.30;;;;;;5107024;28;20044;-69
2023/05/01 00:39:46;;;;;;;7.72;4.18;;;7.00;90.50;;;;;;5090465;28;20070;-69
2023/05/01 00:42:12;;;;;;;8.35;3.95;;;6.90;90.50;;;;;;5087086;28;20039;-69
2023/05/01 00:44:38;;;;;;;9.68;3.97;;;6.90;90.60;;;;;;5079845;28;20048;-69
2023/05/01 00:47:03;;;;;;;7.88;4.40;;;6.80;90.90;;;;;;5067841;28;20044;-70
2023/05/01 00:49:29;;;;;;;10.63;4.40;;;6.80;91.10;;;;;;5088537;28;20084;-70
2023/05/01 00:51:57;;;;;;;8.55;3.75;;;6.70;90.80;;;;;;5069686;28;20088;-69
2023/05/01 00:54:24;;;;;;;7.47;3.55;;;6.70;90.80;;;;;;5088744;28;20488;-69
2023/05/01 00:56:50;;;;;;;7.30;3.95;;;6.70;90.90;;;;;;5087171;28;20474;-70
2023/05/01 00:59:16;;;;;;;9.52;4.25;;;6.60;91.00;;;;;;5053564;28;20855;-70
2023/05/01 01:01:42;;;;;;;6.97;4.05;;;6.60;91.10;;;;;;5078074;28;20040;-70
2023/05/01 01:04:07;;;;;;;8.10;4.85;;;6.60;91.30;;;;;;5063249;28;20047;-70
2023/05/01 01:06:53;;;;;;;8.18;3.78;;;6.60;91.40;;;;;;5080621;28;20059;-70
2023/05/01 01:09:42;;;;;;;7.68;4.50;;;6.60;91.60;;;;;;5077978;28;20456;-70
2023/05/01 01:12:42;;;;;;;7.43;4.18;;;6.60;92.00;;;;;;5082129;28;20416;-70
2023/05/01 01:15:22;;;;;;;11.32;4.32;;;6.60;92.00;;;;;;5060369;28;20043;-70
2023/05/01 01:18:26;;;;;;;9.73;4.35;;;6.50;91.50;;;;;;5081136;28;20036;-70
2023/05/01 01:21:18;;;;;;;8.73;4.75;;;6.50;92.10;;;;;;5089883;28;20040;-70
2023/05/01 01:24:10;;;;;;;8.18;4.53;;;6.50;91.70;;;;;;5072459;28;20039;-70
2023/05/01 01:27:01;;;;;;;8.73;4.18;;;6.40;91.80;;;;;;5077929;28;20119;-70
2023/05/01 01:30:03;;;;;;;7.88;4.32;;;6.40;91.90;;;;;;5081241;28;20175;-69
2023/05/01 01:33:00;;;;;;;7.45;4.07;;;6.40;92.40;;;;;;5074321;28;20040;-70
2023/05/01 01:35:27;;;;;;;8.88;4.20;;;6.30;92.40;;;;;;5079064;28;20050;-70
2023/05/01 01:38:18;;;;;;;6.90;4.50;;;6.30;91.90;;;;;;5083355;28;20472;-70
2023/05/01 01:40:57;;;;;;;8.30;4.13;;;6.20;92.80;;;;;;5079834;28;21063;-70
2023/05/01 01:43:24;;;;;;;11.65;4.38;;;6.20;92.60;;;;;;5077889;28;20086;-70
2023/05/01 01:45:56;;;;;;;9.40;4.47;;;6.10;92.20;;;;;;5088416;28;20039;-70
2023/05/01 01:48:32;;;;;;;8.57;4.55;;;6.10;92.40;;;;;;5076914;28;20032;-69
2023/05/01 01:50:59;;;;;;;10.35;4.15;;;6.10;92.70;;;;;;5080960;28;20121;-70
2023/05/01 01:53:28;;;;;;;8.45;4.22;;;6.00;92.40;;;;;;5087757;28;20036;-70
2023/05/01 01:55:56;;;;;;;7.03;4.10;;;6.00;92.50;;;;;;5087295;28;20050;-70
2023/05/01 01:58:25;;;;;;;7.55;4.18;;;6.00;92.60;;;;;;5088129;28;20407;-70
2023/05/01 02:00:52;;;;;;;9.30;4.30;;;5.90;92.50;;;;;;5088850;28;20070;-69
2023/05/01 02:03:20;;;;;;;9.40;3.95;;;5.90;92.80;;;;;;5080268;28;20041;-69
2023/05/01 02:05:48;;;;;;;8.95;4.20;;;5.90;92.70;;;;;;5085977;28;20047;-69
2023/05/01 02:08:15;;;;;;;10.15;4.60;;;5.90;92.80;;;;;;5088784;28;20047;-70
2023/05/01 02:10:42;;;;;;;7.63;3.85;;;5.80;92.90;;;;;;5081371;28;20794;-70
2023/05/01 02:13:09;;;;;;;8.38;4.10;;;5.90;93.10;;;;;;5079042;28;20060;-69
2023/05/01 02:15:36;;;;;;;9.82;4.35;;;5.80;93.10;;;;;;5078356;28;20123;-70
2023/05/01 02:18:03;;;;;;;9.85;3.97;;;5.70;93.10;;;;;;5072472;28;20044;-70
2023/05/01 02:20:29;;;;;;;8.30;3.92;;;5.70;93.20;;;;;;5079552;28;20032;-70
2023/05/01 02:22:57;;;;;;;10.82;4.57;;;5.70;93.50;;;;;;5075759;28;20117;-70
2023/05/01 02:25:23;;;;;;;8.52;4.88;;;5.70;93.60;;;;;;5080288;28;20090;-70
2023/05/01 02:27:55;;;;;;;8.52;4.40;;;5.60;93.40;;;;;;5073225;28;20067;-70
2023/05/01 02:30:20;;;;;;;12.73;4.80;;;5.60;93.50;;;;;;5076400;28;20039;-70
2023/05/01 02:32:46;;;;;;;8.40;4.15;;;5.60;93.50;;;;;;5081673;28;20036;-70
2023/05/01 02:35:12;;;;;;;9.45;5.45;;;5.50;93.50;;;;;;5075244;28;20121;-69
2023/05/01 02:37:37;;;;;;;12.60;4.60;;;5.50;93.60;;;;;;5077570;28;20040;-69
2023/05/01 02:40:04;;;;;;;9.85;4.95;;;5.50;93.70;;;;;;5067795;28;20560;-69
2023/05/01 02:42:31;;;;;;;10.32;5.32;;;5.50;93.80;;;;;;5071155;28;20066;-69
2023/05/01 02:45:01;;;;;;;11.38;4.75;;;5.40;93.80;;;;;;5081511;28;20059;-70
2023/05/01 02:47:29;;;;;;;9.10;5.22;;;5.40;93.90;;;;;;5068666;28;20415;-70
2023/05/01 02:49:56;;;;;;;9.43;5.15;;;5.40;93.90;;;;;;5077767;28;20047;-70
2023/05/01 02:52:22;;;;;;;11.43;4.80;;;5.40;94.00;;;;;;5058617;28;20123;-70
2023/05/01 02:54:49;;;;;;;11.38;4.97;;;5.40;94.30;;;;;;5078967;28;20064;-69
2023/05/01 02:57:17;;;;;;;10.57;5.10;;;5.40;94.30;;;;;;5076914;28;20040;-69
2023/05/01 02:59:43;;;;;;;10.43;4.80;;;5.30;94.20;;;;;;5082463;28;20039;-69
2023/05/01 03:02:08;;;;;;;11.52;5.63;;;5.30;94.10;;;;;;5075571;28;20040;-70
2023/05/01 03:04:34;;;;;;;8.65;4.65;;;5.30;94.30;;;;;;5065439;28;20035;-70
2023/05/01 03:07:00;;;;;;;10.02;5.13;;;5.30;94.40;;;;;;5081002;28;20124;-70
2023/05/01 03:09:25;;;;;;;8.55;4.95;;;5.30;94.80;;;;;;5082495;28;20036;-70
2023/05/01 03:11:51;;;;;;;12.77;4.60;;;5.20;94.60;;;;;;5085125;28;20565;-69
2023/05/01 03:14:16;;;;;;;12.88;4.80;;;5.30;94.70;;;;;;5076389;28;20534;-69
2023/05/01 03:16:43;;;;;;;10.23;4.95;;;5.20;94.70;;;;;;5061477;28;20059;-70
2023/05/01 03:19:09;;;;;;;10.77;4.40;;;5.20;94.70;;;;;;5084046;28;20036;-69
2023/05/01 03:21:35;;;;;;;11.77;4.65;;;5.20;94.70;;;;;;5088378;28;21020;-70
2023/05/01 03:24:02;;;;;;;10.55;5.03;;;5.10;94.70;;;;;;5080002;28;20759;-70
2023/05/01 03:26:27;;;;;;;11.57;5.30;;;5.20;94.90;;;;;;5064322;28;20085;-70
2023/05/01 03:28:53;;;;;;;9.10;4.50;;;5.10;94.80;;;;;;5082171;28;20032;-70
2023/05/01 03:31:18;;;;;;;10.07;4.82;;;5.20;94.90;;;;;;5078842;28;20045;-69
2023/05/01 03:33:44;;;;;;;8.63;4.20;;;5.10;94.90;;;;;;5082892;28;20032;-70
2023/05/01 03:36:12;;;;;;;10.93;4.57;;;5.10;94.90;;;;;;5083697;28;20047;-70
2023/05/01 03:38:38;;;;;;;8.50;4.30;;;5.10;94.90;;;;;;5083230;28;20039;-70
2023/05/01 03:41:04;;;;;;;11.00;4.32;;;5.10;94.90;;;;;;5081097;28;20028;-70
2023/05/01 03:43:30;;;;;;;8.80;4.53;;;5.00;95.00;;;;;;5075762;28;20043;-69
2023/05/01 03:45:56;;;;;;;10.55;4.70;;;4.90;95.20;;;;;;5089729;28;20040;-70
2023/05/01 03:48:22;;;;;;;8.57;5.03;;;4.90;95.30;;;;;;5088976;28;20126;-70
2023/05/01 03:50:48;;;;;;;11.00;4.95;;;4.90;95.30;;;;;;5091395;28;20036;-69
2023/05/01 03:53:14;;;;;;;9.73;4.75;;;4.80;95.30;;;;;;5058725;28;20496;-70
2023/05/01 03:55:39;;;;;;;8.73;4.97;;;4.80;95.40;;;;;;5079443;28;20040;-70
2023/05/01 03:58:06;;;;;;;12.23;4.72;;;4.80;95.30;;;;;;5089568;28;20361;-70
2023/05/01 04:00:32;;;;;;;11.80;5.05;;;4.80;95.40;;;;;;5074269;28;20046;-70
2023/05/01 04:02:57;;;;;;;9.65;5.07;;;4.80;95.50;;;;;;5070199;28;20078;-70
2023/05/01 04:05:23;;;;;;;10.93;4.60;;;4.80;95.50;;;;;;5065358;28;20082;-69
2023/05/01 04:07:49;;;;;;;11.35;4.93;;;4.70;95.50;;;;;;5086514;28;20044;-70
2023/05/01 04:10:15;;;;;;;11.55;4.65;;;4.70;95.50;;;;;;5083276;28;20053;-69
2023/05/01 04:12:41;;;;;;;9.95;4.72;;;4.70;95.60;;;;;;5080117;28;20048;-70
2023/05/01 04:15:08;;;;;;;12.77;5.93;;;4.70;95.70;;;;;;5082587;28;20460;-69
2023/05/01 04:17:36;;;;;;;10.98;5.20;;;4.70;96.00;;;;;;5079185;28;20040;-70
2023/05/01 04:20:04;;;;;;;10.43;5.38;;;4.70;96.00;;;;;;5081070;28;20093;-70
2023/05/01 04:22:30;;;;;;;11.85;5.05;;;4.80;96.30;;;;;;5081529;28;20032;-70
2023/05/01 04:24:56;;;;;;;10.50;5.55;;;4.70;96.10;;;;;;5075802;28;20077;-69
2023/05/01 04:27:21;;;;;;;10.65;5.00;;;4.70;96.10;;;;;;5077575;28;20258;-70
2023/05/01 04:29:47;;;;;;;11.73;5.38;;;4.70;96.20;;;;;;5079512;28;20068;-69
2023/05/01 04:32:13;;;;;;;11.05;4.90;;;4.70;96.10;;;;;;5075199;28;20046;-70
2023/05/01 04:34:38;;;;;;;11.23;4.88;;;4.70;96.20;;;;;;5082233;28;20072;-69
2023/05/01 04:37:06;;;;;;;10.70;5.75;;;4.80;96.40;;;;;;5078709;28;20070;-69
2023/05/01 04:39:31;;;;;;;10.43;5.30;;;4.80;96.40;;;;;;5080849;28;20120;-70
2023/05/01 04:41:57;;;;;;;10.48;5.78;;;4.80;96.50;;;;;;5076356;28;20036;-70
2023/05/01 04:44:23;;;;;;;11.13;5.22;;;4.90;96.60;;;;;;5071530;28;20510;-69
2023/05/01 04:46:48;;;;;;;11.73;5.72;;;5.00;96.90;;;;;;5082881;28;20036;-70
2023/05/01 04:49:14;;;;;;;12.02;5.97;;;5.10;96.90;;;;;;5067475;28;20032;-70
2023/05/01 04:51:40;;;;;;;12.52;6.03;;;5.10;97.10;;;;;;5079595;28;20036;-70
2023/05/01 04:54:05;;;;;;;12.48;5.90;;;5.20;97.10;;;;;;5081742;28;20047;-70
2023/05/01 04:56:31;;;;;;;12.18;5.50;;;5.30;97.10;;;;;;5075464;28;20043;-69
2023/05/01 04:58:57;;;;;;;13.27;5.57;;;5.30;97.10;;;;;;5078954;28;20073;-70
2023/05/01 05:01:22;;;;;;;10.77;5.55;;;5.40;97.20;;;;;;5059396;28;20043;-70
2023/05/01 05:03:48;;;;;;;11.80;5.30;;;5.50;97.30;;;;;;5076581;28;20039;-69
2023/05/01 05:06:13;;;;;;;12.80;5.53;;;5.60;97.50;;;;;;5079654;28;20043;-69
2023/05/01 05:08:39;;;;;;;11.55;6.05;;;5.70;97.50;;;;;;5075793;28;20043;-70
2023/05/01 05:11:05;;;;;;;10.75;5.90;;;5.90;97.60;;;;;;5080170;28;20090;-70
2023/05/01 05:13:30;;;;;;;17.48;6.00;;;6.00;97.90;;;;;;5096595;28;20073;-69
2023/05/01 05:15:56;;;;;;;14.50;6.45;;;6.10;97.80;;;;;;5078725;28;20036;-70
2023/05/01 05:18:21;;;;;;;12.50;6.55;;;6.20;97.90;;;;;;5076838;28;20078;-70
2023/05/01 05:20:47;;;;;;;12.32;5.95;;;6.40;97.80;;;;;;5081502;28;20056;-70
2023/05/01 05:23:12;;;;;;;11.30;5.93;;;6.50;97.50;;;;;;5075867;28;20549;-69
2023/05/01 05:25:38;;;;;;;11.98;6.10;;;6.60;97.30;;;;;;5051838;28;20415;-70
2023/05/01 05:28:04;;;;;;;14.80;6.60;;;6.80;97.20;;;;;;5077898;28;20040;-70
2023/05/01 05:30:29;;;;;;;12.00;6.22;;;6.90;96.90;;;;;;5082944;28;20049;-70
2023/05/01 05:32:55;;;;;;;12.32;6.05;;;7.00;96.80;;;;;;5068716;28;20036;-70
2023/05/01 05:35:21;;;;;;;13.40;6.30;;;7.10;96.80;;;;;;5074635;28;20044;-70
2023/05/01 05:37:46;;;;;;;10.85;6.63;;;7.20;96.70;;;;;;5063633;28;20040;-70
2023/05/01 05:40:12;;;;;;;12.27;6.00;;;7.30;96.70;;;;;;5055767;28;20710;-70
2023/05/01 05:42:38;;;;;;;14.23;6.75;;;7.40;96.70;;;;;;5085940;28;20032;-69
2023/05/01 05:45:05;;;;;;;12.85;6.38;;;7.50;96.40;;;;;;5083899;28;20040;-69
2023/05/01 05:47:30;;;;;;;13.60;6.65;;;7.60;96.50;;;;;;5068991;28;20494;-70
2023/05/01 05:49:56;;;;;;;12.07;6.00;;;7.70;96.20;;;;;;5080578;28;20044;-70
2023/05/01 05:52:21;;;;;;;12.48;6.55;;;7.80;96.30;;;;;;5085400;28;20059;-69
2023/05/01 05:54:47;;;;;;;12.65;6.68;;;7.90;95.90;;;;;;5081856;28;20042;-70
2023/05/01 05:57:13;;;;;;;12.13;6.60;;;8.00;96.00;;;;;;5087531;28;20103;-69
2023/05/01 05:59:38;;;;;;;13.30;6.05;;;8.10;95.80;;;;;;5077061;28;20039;-69
2023/05/01 06:02:04;;;;;;;12.90;6.55;;;8.30;95.50;;;;;;5075394;28;20472;-69
2023/05/01 06:04:30;;;;;;;11.93;6.68;;;8.40;95.30;;;;;;5072746;28;20572;-69
2023/05/01 06:06:56;;;;;;;15.35;6.82;;;8.60;94.80;;;;;;5088424;28;20044;-69
2023/05/01 06:09:22;;;;;;;13.35;6.60;;;8.80;94.60;;;;;;5086567;28;20048;-69
2023/05/01 06:11:47;;;;;;;13.00;6.63;;;9.00;94.10;;;;;;5079960;28;20055;-70
2023/05/01 06:14:14;;;;;;;10.90;6.35;;;9.20;93.80;;;;;;5078419;28;20085;-69
2023/05/01 06:16:39;;;;;;;13.80;7.35;;;9.40;93.20;;;;;;5078986;28;20048;-70
2023/05/01 06:19:06;;;;;;;13.77;7.03;;;9.50;92.80;;;;;;5071171;28;20341;-69
2023/05/01 06:21:33;;;;;;;11.48;6.78;;;9.60;92.10;;;;;;5074719;28;20043;-70
2023/05/01 06:23:58;;;;;;;11.50;6.32;;;9.70;91.80;;;;;;5071193;28;20028;-70
2023/05/01 06:26:25;;;;;;;12.65;6.63;;;9.80;91.60;;;;;;5072160;28;20048;-69
2023/05/01 06:28:50;;;;;;;12.10;6.18;;;10.00;91.20;;;;;;5097262;28;20460;-70
2023/05/01 06:31:16;;;;;;;11.68;6.07;;;10.20;90.60;;;;;;5068721;28;20225;-69
2023/05/01 06:33:41;;;;;;;13.48;6.25;;;10.30;90.00;;;;;;5082916;28;20072;-69
2023/05/01 06:36:07;;;;;;;9.60;5.93;;;10.40;88.60;;;;;;5074303;28;20513;-69
2023/05/01 06:38:33;;;;;;;10.63;6.35;;;10.40;87.80;;;;;;5087673;28;20097;-69
2023/05/01 06:40:58;;;;;;;11.25;5.47;;;10.50;87.50;;;;;;5088331;28;20483;-70
2023/05/01 06:43:29;;;;;;;12.15;5.90;;;10.70;86.40;;;;;;5079889;28;20501;-69
2023/05/01 06:45:55;;;;;;;;;;;10.80;85.60;;;;;;5089797;28;20036;-70
2023/05/01 06:48:21;;;;;;;8.55;5.30;;;11.10;79.20;;;;;;5079756;28;20346;-69
2023/05/01 06:50:46;;;;;;;11.07;6.55;;;11.20;83.10;;;;;;5084578;28;20086;-70
2023/05/01 06:53:12;;;;;;;10.18;6.05;;;11.30;82.50;;;;;;5097801;28;20047;-69
2023/05/01 06:55:37;;;;;;;10.70;5.97;;;11.70;81.50;;;;;;5085624;28;20028;-69
2023/05/01 06:58:04;;;;;;;7.35;5.30;;;11.90;80.60;;;;;;5088497;28;20040;-69
2023/05/01 07:00:29;;;;;;;9.32;5.40;;;12.10;79.40;;;;;;5083678;28;20064;-69
2023/05/01 07:02:55;;;;;;;11.57;5.80;;;12.10;78.00;;;;;;5074290;28;20620;-70
2023/05/01 07:05:21;;;;;;;10.65;5.93;;;12.20;77.60;;;;;;5081195;28;20135;-68
2023/05/01 07:07:48;;;;;;;11.70;5.95;;;12.30;77.80;;;;;;5082346;28;20048;-69
2023/05/01 07:10:13;;;;;;;11.18;5.97;;;12.60;77.40;;;;;;5078582;28;20059;-71
2023/05/01 07:12:39;;;;;;;10.02;6.13;;;12.90;76.60;;;;;;5082566;28;20052;-70
2023/05/01 07:15:05;;;;;;;9.93;5.47;;;12.90;75.60;;;;;;5088849;28;20059;-70
2023/05/01 07:17:31;;;;;;;11.32;5.75;;;13.20;74.60;;;;;;5085458;28;20528;-69
2023/05/01 07:19:56;;;;;;;9.63;5.57;;;13.40;74.40;;;;;;5082175;28;20031;-70
2023/05/01 07:22:22;;;;;;;10.57;5.13;;;13.80;73.70;;;;;;5078388;28;20151;-69
2023/05/01 07:24:47;;;;;;;8.18;5.25;;;13.90;72.30;;;;;;5082504;28;20048;-70
2023/05/01 07:27:13;;;;;;;10.18;5.40;;;14.10;71.80;;;;;;5078413;28;20487;-70
2023/05/01 07:29:39;;;;;;;9.10;5.38;;;14.20;71.70;;;;;;5079228;28;20063;-69
2023/05/01 07:32:05;;;;;;;9.05;5.18;;;14.20;70.50;;;;;;5076430;28;20044;-69
2023/05/01 07:34:31;;;;;;;10.63;5.40;;;14.30;69.30;;;;;;5084904;28;20055;-68
2023/05/01 07:36:57;;;;;;;9.05;5.10;;;14.50;68.70;;;;;;5083810;28;20119;-69
2023/05/01 07:39:23;;;;;;;13.27;5.32;;;14.40;68.00;;;;;;5083292;28;20367;-70
2023/05/01 07:41:48;;;;;;;10.75;5.03;;;14.50;67.40;;;;;;5086814;28;20047;-69
2023/05/01 07:44:14;;;;;;;9.52;5.00;;;14.50;63.70;;;;;;5081835;28;20059;-69
2023/05/01 07:46:40;;;;;;;10.25;5.03;;;14.40;66.00;;;;;;5087821;28;20036;-69
2023/05/01 07:49:06;;;;;;;9.15;5.00;;;14.60;65.30;;;;;;5076304;28;20051;-69
2023/05/01 07:51:32;;;;;;;9.35;5.07;;;14.70;64.40;;;;;;5082783;28;20040;-69
2023/05/01 07:54:02;;;;;;;7.50;4.75;;;14.80;63.20;;;;;;5076777;28;20349;-70
2023/05/01 07:56:28;;;;;;;12.60;5.22;;;14.70;62.80;;;;;;5078350;28;20040;-67
2023/05/01 07:58:53;;;;;;;8.02;4.55;;;14.70;62.90;;;;;;5078864;28;20063;-66
2023/05/01 08:01:19;;;;;;;7.72;5.05;;;14.70;61.80;;;;;;5077129;28;20040;-67
2023/05/01 08:03:45;;;;;;;9.68;5.00;;;14.80;61.50;;;;;;5082389;28;20044;-67
2023/05/01 08:06:10;;;;;;;13.15;5.70;;;15.00;60.90;;;;;;5080831;28;22286;-66
2023/05/01 08:08:36;;;;;;;8.68;5.22;;;15.20;60.80;;;;;;5084554;28;20082;-67
2023/05/01 08:11:02;;;;;;;9.80;5.05;;;15.30;60.70;;;;;;5077417;28;20048;-67
2023/05/01 08:13:27;;;;;;;7.18;5.00;;;15.40;60.90;;;;;;5089997;28;20040;-67
2023/05/01 08:15:53;;;;;;;8.65;5.32;;;15.30;60.30;;;;;;5085162;28;20036;-67
2023/05/01 08:18:19;;;;;;;7.95;5.03;;;15.50;60.20;;;;;;5068336;28;20040;-67
2023/05/01 08:20:48;;;;;;;10.05;5.13;;;15.60;59.50;;;;;;5084865;28;20161;-67
2023/05/01 08:23:15;;;;;;;10.93;5.07;;;15.70;58.00;;;;;;5089195;28;20048;-67
2023/05/01 08:25:41;;;;;;;8.07;5.25;;;15.80;58.70;;;;;;5076059;28;20033;-67
2023/05/01 08:28:06;;;;;;;9.35;5.05;;;16.00;58.60;;;;;;5080248;28;20036;-67
2023/05/01 08:30:32;;;;;;;9.50;5.10;;;15.90;58.00;;;;;;5075855;28;20033;-67
2023/05/01 08:32:57;;;;;;;8.60;4.90;;;15.80;58.70;;;;;;5070607;28;20097;-67
2023/05/01 08:35:23;;;;;;;10.02;5.38;;;15.90;58.90;;;;;;5078032;28;20058;-68
2023/05/01 08:37:48;;;;;;;12.30;5.28;;;16.30;58.50;;;;;;5073588;28;20118;-67
2023/05/01 08:40:14;;;;;;;8.57;4.80;;;16.80;57.80;;;;;;5077220;28;20036;-68
2023/05/01 08:42:40;;;;;;;11.93;6.03;;;17.30;57.00;;;;;;5079241;28;20032;-68
2023/05/01 08:45:10;;;;;;;14.77;4.97;;;17.60;55.90;;;;;;5080844;28;21720;-68
2023/05/01 08:47:38;;;;;;;8.02;5.05;;;17.90;54.40;;;;;;5085568;28;20067;-68
2023/05/01 08:50:09;;;;;;;9.45;4.80;;;18.00;53.80;;;;;;5076106;28;20055;-69
2023/05/01 08:52:39;;;;;;;7.97;4.72;;;18.30;53.60;;;;;;5069821;28;20396;-68
2023/05/01 08:55:10;;;;;;;8.02;4.53;;;19.00;52.70;;;;;;5073710;28;20138;-68
2023/05/01 08:57:36;;;;;;;7.65;4.63;;;19.20;50.30;;;;;;5077093;28;20083;-68
2023/05/01 09:00:04;;;;;;;6.78;4.90;;;19.50;49.70;;;;;;5082343;28;20083;-68
2023/05/01 09:02:33;;;;;;;8.88;3.50;;;19.60;48.90;;;;;;5069648;28;20036;-68
2023/05/01 09:05:01;;;;;;;6.47;4.28;;;19.60;48.60;;;;;;5066935;28;20090;-67
2023/05/01 09:07:26;;;;;;;5.43;3.72;;;19.60;48.40;;;;;;5067502;28;20076;-68
2023/05/01 09:09:52;;;;;;;8.25;3.72;;;19.60;48.20;;;;;;5074717;28;20067;-67
2023/05/01 09:12:25;;;;;;;8.95;4.20;;;19.80;47.30;;;;;;5074231;28;20436;-68
2023/05/01 09:14:55;;;;;;;6.47;4.20;;;19.70;43.50;;;;;;5085641;28;20096;-67
2023/05/01 09:17:22;;;;;;;8.77;4.70;;;19.80;45.80;;;;;;5078323;28;20055;-68
2023/05/01 09:19:48;;;;;;;7.57;4.20;;;19.80;46.40;;;;;;5061905;28;20036;-68
2023/05/01 09:22:16;;;;;;;7.28;4.05;;;19.60;46.50;;;;;;5072682;28;20040;-67
2023/05/01 09:24:42;;;;;;;7.05;3.70;;;19.70;46.40;;;;;;5072817;28;20088;-67
2023/05/01 09:27:08;;;;;;;7.82;4.20;;;19.60;45.70;;;;;;5072789;28;20069;-68
2023/05/01 09:29:39;;;;;;;6.00;3.40;;;19.40;45.00;;;;;;5082762;28;20032;-68
2023/05/01 09:32:13;;;;;;;9.95;3.90;;;19.30;43.20;;;;;;5069586;28;20093;-68
2023/05/01 09:34:39;;;;;;;8.02;3.50;;;19.50;43.30;;;;;;5081050;28;20114;-67
2023/05/01 09:37:05;;;;;;;6.30;3.65;;;19.70;43.50;;;;;;5070584;28;20588;-67
2023/05/01 09:39:31;;;;;;;7.13;3.63;;;20.20;43.00;;;;;;5076802;28;20111;-67
2023/05/01 09:41:56;;;;;;;7.03;3.28;;;20.40;42.20;;;;;;5085644;28;20043;-68
2023/05/01 09:44:22;;;;;;;7.30;3.60;;;20.60;42.40;;;;;;5075112;28;20047;-69
2023/05/01 09:46:48;;;;;;;8.32;3.17;;;20.60;41.20;;;;;;5084705;28;20532;-67
2023/05/01 09:49:14;;;;;;;6.22;3.20;;;20.50;40.20;;;;;;5077641;28;20097;-69
2023/05/01 09:51:40;;;;;;;5.50;2.92;;;20.40;40.00;;;;;;5067907;28;20048;-68
2023/05/01 09:54:18;;;;;;;5.00;2.78;;;20.40;39.40;;;;;;5076514;28;20040;-68
2023/05/01 09:56:48;;;;;;;6.70;2.88;;;20.00;38.50;;;;;;5058928;28;20047;-67
2023/05/01 09:59:16;;;;;;;8.15;3.30;;;20.40;39.00;;;;;;5086294;28;20055;-68
2023/05/01 10:01:45;;;;;;;7.72;2.90;;;20.40;39.40;;;;;;5059022;28;20872;-68
2023/05/01 10:04:11;;;;;;;7.05;2.92;;;21.00;38.90;;;;;;5074146;28;20047;-68
2023/05/01 10:06:38;;;;;;;5.72;2.47;;;21.60;37.90;;;;;;5083140;28;20097;-68
2023/05/01 10:09:06;;;;;;;7.10;2.95;;;22.50;36.60;;;;;;5084723;28;20032;-67
2023/05/01 10:11:54;;;;;;;4.55;2.55;;;23.60;33.80;;;;;;5079626;28;20104;-67
2023/05/01 10:14:22;;;;;;;3.60;2.50;;;24.30;31.40;;;;;;5078551;28;20786;-68
2023/05/01 10:16:48;;;;;;;5.53;2.67;;;25.10;31.80;;;;;;5062510;28;20044;-67
2023/05/01 10:19:16;;;;;;;5.90;2.80;;;25.10;31.20;;;;;;5076490;28;20051;-69
2023/05/01 10:21:41;;;;;;;5.20;2.70;;;25.20;31.40;;;;;;5083289;28;20085;-69
2023/05/01 10:24:08;;;;;;;5.45;2.75;;;24.70;31.70;;;;;;5084859;28;20447;-69
2023/05/01 10:26:35;;;;;;;4.25;2.20;;;24.70;32.50;;;;;;5060754;28;20036;-68
2023/05/01 10:29:01;;;;;;;2.90;1.95;;;24.40;32.70;;;;;;5094014;28;20040;-68
2023/05/01 10:31:28;;;;;;;3.55;1.88;;;24.50;32.80;;;;;;5073706;28;20043;-69
2023/05/01 10:33:55;;;;;;;3.58;2.60;;;24.70;32.80;;;;;;5076922;28;20048;-68
2023/05/01 10:36:53;;;;;;;3.35;1.95;;;24.70;31.40;;;;;;5072130;28;20043;-68
2023/05/01 10:39:29;;;;;;;5.68;2.88;;;24.40;31.20;;;;;;5084515;28;20089;-68
2023/05/01 10:41:58;;;;;;;4.38;2.40;;;23.30;32.10;;;;;;5077282;28;20511;-69
2023/05/01 10:44:25;;;;;;;9.68;2.25;;;23.10;34.20;;;;;;5084783;28;20146;-68
2023/05/01 10:46:51;;;;;;;4.93;2.30;;;22.80;35.50;;;;;;5083972;28;20091;-68
2023/05/01 10:49:17;;;;;;;3.75;2.35;;;22.60;36.20;;;;;;5072477;28;20455;-68
2023/05/01 10:52:00;;;;;;;4.05;2.22;;;22.40;36.20;;;;;;5075863;28;20041;-68
2023/05/01 10:54:31;;;;;;;5.75;2.63;;;22.20;35.30;;;;;;5086730;28;20040;-70
2023/05/01 10:57:01;;;;;;;5.18;2.50;;;22.10;37.20;;;;;;5089186;28;20040;-69
2023/05/01 11:00:00;;;;;;;5.88;2.90;;;22.00;36.80;;;;;;5083570;28;20086;-69
2023/05/01 11:02:26;;;;;;;4.38;2.70;;;21.90;36.10;;;;;;5074179;28;20036;-68
2023/05/01 11:04:52;;;;;;;6.60;3.17;;;21.80;36.60;;;;;;5068880;28;20047;-68
2023/05/01 11:07:19;;;;;;;6.60;2.83;;;21.60;36.10;;;;;;5076266;28;20075;-68
2023/05/01 11:09:53;;;;;;;6.68;2.97;;;21.70;36.10;;;;;;5082732;28;20035;-68
2023/05/01 11:12:44;;;;;;;5.32;2.38;;;21.60;36.60;;;;;;5079378;28;20106;-68
2023/05/01 11:15:10;;;;;;;4.07;2.45;;;21.60;38.20;;;;;;5084528;28;20380;-68
2023/05/01 11:17:38;;;;;;;5.80;2.58;;;21.70;37.70;;;;;;5084298;28;20051;-69
2023/05/01 11:20:05;;;;;;;4.28;2.40;;;21.70;37.80;;;;;;5087696;28;20040;-68
2023/05/01 11:22:32;;;;;;;5.80;2.20;;;21.70;38.00;;;;;;5064928;28;20097;-68
2023/05/01 11:24:59;;;;;;;4.22;2.20;;;21.70;38.20;;;;;;5082796;28;20400;-68
2023/05/01 11:27:25;;;;;;;3.92;1.95;;;21.60;37.40;;;;;;5086174;28;20040;-68
2023/05/01 11:29:52;;;;;;;3.95;1.40;;;21.50;37.10;;;;;;5081963;28;20044;-69
2023/05/01 11:32:23;;;;;;;3.72;1.27;;;21.60;37.50;;;;;;5071849;28;20032;-67
2023/05/01 11:34:50;;;;;;;4.70;1.50;;;21.70;37.20;;;;;;5088485;28;20113;-69
2023/05/01 11:37:16;;;;;;;2.75;1.65;;;21.70;37.00;;;;;;5092676;28;20044;-70
2023/05/01 11:39:52;;;;;;;5.40;2.30;;;21.70;37.20;;;;;;5081003;28;20549;-70
2023/05/01 11:42:23;;;;;;;6.45;2.33;;;21.60;37.80;;;;;;5089305;28;20486;-68
2023/05/01 11:45:11;;;;;;;6.75;2.38;;;21.80;38.20;;;;;;5084994;28;20028;-68
2023/05/01 11:47:40;;;;;;;5.22;2.10;;;21.80;36.90;;;;;;5073794;28;20165;-68
2023/05/01 11:50:08;;;;;;;4.00;1.73;;;21.70;38.20;;;;;;5091081;28;20122;-68
2023/05/01 11:52:48;;;;;;;3.47;1.83;;;22.00;37.80;;;;;;5089152;28;20036;-68
2023/05/01 11:55:15;;;;;;;4.60;1.65;;;22.40;37.30;;;;;;5086126;28;20040;-68
2023/05/01 11:57:53;;;;;;;3.60;1.17;;;22.80;36.50;;;;;;5091252;28;20055;-69
2023/05/01 12:00:30;;;;;;;2.58;1.42;;;23.00;36.20;;;;;;5087638;28;20039;-67
2023/05/01 12:03:07;;;;;;;3.65;1.60;;;22.60;33.10;;;;;;5087696;28;20044;-67
2023/05/01 12:05:35;;;;;;;3.10;1.40;;;22.60;34.10;;;;;;5091179;28;20384;-68
2023/05/01 12:08:17;;;;;;;4.57;1.52;;;22.50;34.90;;;;;;5063852;28;20040;-67
2023/05/01 12:10:44;;;;;;;1.50;1.17;;;22.60;34.00;;;;;;5078950;28;20040;-68
2023/05/01 12:13:12;;;;;;;2.90;1.10;;;22.60;34.90;;;;;;5084036;28;20135;-67
2023/05/01 12:15:52;;;;;;;7.05;1.15;;;22.80;35.80;;;;;;5069807;28;20136;-69
2023/05/01 12:18:18;;;;;;;2.78;1.10;;;22.80;35.30;;;;;;5076724;28;20043;-67
2023/05/01 12:20:50;;;;;;;2.00;0.70;;;22.80;35.80;;;;;;5061748;28;20611;-68
2023/05/01 12:23:17;;;;;;;3.65;1.30;;;22.60;35.40;;;;;;5086224;28;20047;-69
2023/05/01 12:25:44;;;;;;;2.95;1.75;;;22.50;35.80;;;;;;5083929;28;20032;-68
2023/05/01 12:28:18;;;;;;;2.20;0.85;;;22.50;35.80;;;;;;5077745;28;20032;-68
2023/05/01 12:30:46;;;;;;;1.00;0.75;;;22.60;35.50;;;;;;5075008;28;20044;-68
2023/05/01 12:33:14;;;;;;;3.08;1.27;;;22.80;35.80;;;;;;5086572;28;20435;-67
2023/05/01 12:35:41;;;;;;;2.08;0.80;;;22.60;35.50;;;;;;5091155;28;20085;-68
2023/05/01 12:38:18;;;;;;;4.45;2.53;;;22.70;35.00;;;;;;5075652;28;20040;-67
2023/05/01 12:40:55;;;;;;;2.70;1.38;;;23.00;34.20;;;;;;5090019;28;20036;-68
2023/05/01 12:43:32;;;;;;;1.30;0.65;;;23.70;33.30;;;;;;5095022;28;20823;-68
2023/05/01 12:45:58;;;;;;;2.00;0.80;;;24.60;32.00;;;;;;5112288;27;20067;-67
2023/05/01 12:48:24;;;;;;;0.98;0.77;;;25.50;31.00;;;;;;5098497;28;20043;-68
2023/05/01 12:50:53;;;;;;;1.02;0.63;;;26.00;30.40;;;;;;5091757;28;20043;-68
2023/05/01 12:53:24;;;;;;;2.50;0.75;;;25.90;30.20;;;;;;5087462;28;20057;-69